createdAt,value
2019-03-10T00:00:37.404Z,8.57
2019-03-10T00:03:07.861Z,6.87
2019-03-10T00:05:38.272Z,7.03
2019-03-10T00:08:08.588Z,6.63
2019-03-10T00:10:39.040Z,7.57
2019-03-10T00:13:09.526Z,13.00
2019-03-10T00:15:39.871Z,8.30
2019-03-10T00:18:10.312Z,9.80
2019-03-10T00:20:40.835Z,6.30
2019-03-10T00:23:11.229Z,8.27
2019-03-10T00:25:41.536Z,7.93
2019-03-10T00:28:12.036Z,6.20
2019-03-10T00:30:42.546Z,7.07
2019-03-10T00:33:12.931Z,6.67
2019-03-10T00:35:43.386Z,6.77
2019-03-10T00:38:13.885Z,8.50
2019-03-10T00:41:32.132Z,7.43
2019-03-10T00:44:38.697Z,7.47
2019-03-10T00:47:59.448Z,6.60
2019-03-10T00:51:12.456Z,6.20
2019-03-10T00:53:42.830Z,9.87
2019-03-10T00:56:13.094Z,6.70
2019-03-10T00:58:43.574Z,6.10
2019-03-10T01:01:16.549Z,7.83
2019-03-10T01:03:47.089Z,9.83
2019-03-10T01:06:17.609Z,7.03
2019-03-10T01:08:48.325Z,9.20
2019-03-10T01:11:19.177Z,5.70
2019-03-10T01:13:49.526Z,5.10
2019-03-10T01:16:20.535Z,6.63
2019-03-10T01:18:51.947Z,7.53
2019-03-10T01:21:23.160Z,5.07
2019-03-10T01:23:53.981Z,6.73
2019-03-10T01:26:24.511Z,6.47
2019-03-10T01:28:55.074Z,8.17
2019-03-10T01:31:31.875Z,9.03
2019-03-10T01:34:45.709Z,8.33
2019-03-10T01:37:16.341Z,5.90
2019-03-10T01:39:47.012Z,6.93
2019-03-10T01:42:17.280Z,8.00
2019-03-10T01:44:48.021Z,6.07
2019-03-10T01:47:18.511Z,7.93
2019-03-10T01:49:48.883Z,7.03
2019-03-10T01:52:19.291Z,9.93
2019-03-10T01:54:49.866Z,6.80
2019-03-10T01:57:20.229Z,8.60
2019-03-10T01:59:50.734Z,9.00
2019-03-10T02:02:25.809Z,7.80
2019-03-10T02:04:53.491Z,19.10
2019-03-10T02:07:23.809Z,18.00
2019-03-10T02:09:54.258Z,8.20
2019-03-10T02:12:24.831Z,10.87
2019-03-10T02:14:55.324Z,21.57
2019-03-10T02:17:26.045Z,10.20
2019-03-10T02:19:57.018Z,10.40
2019-03-10T02:22:27.537Z,8.80
2019-03-10T02:24:58.004Z,8.10
2019-03-10T02:27:28.373Z,8.20
2019-03-10T02:29:59.002Z,6.83
2019-03-10T02:32:29.407Z,6.77
2019-03-10T02:34:59.754Z,8.20
2019-03-10T02:37:30.311Z,8.97
2019-03-10T02:40:00.715Z,7.27
2019-03-10T02:42:31.293Z,9.80
2019-03-10T02:45:01.865Z,6.17
2019-03-10T02:47:32.680Z,5.63
2019-03-10T02:50:03.407Z,6.33
2019-03-10T02:52:33.868Z,5.90
2019-03-10T02:55:04.884Z,8.13
2019-03-10T02:57:35.421Z,5.40
2019-03-10T03:00:06.912Z,5.67
2019-03-10T03:02:37.188Z,8.87
2019-03-10T03:05:09.421Z,8.03
2019-03-10T03:07:40.226Z,7.07
2019-03-10T03:10:12.218Z,5.97
2019-03-10T03:12:42.698Z,5.43
2019-03-10T03:15:13.380Z,5.80
2019-03-10T03:17:43.926Z,9.17
2019-03-10T03:20:14.752Z,7.13
2019-03-10T03:22:45.190Z,7.70
2019-03-10T03:25:15.723Z,9.70
2019-03-10T03:27:46.371Z,6.70
2019-03-10T03:30:18.445Z,9.87
2019-03-10T03:32:49.159Z,6.43
2019-03-10T03:35:49.089Z,6.03
2019-03-10T03:38:22.523Z,7.73
2019-03-10T03:40:57.694Z,6.83
2019-03-10T03:43:28.377Z,8.30
2019-03-10T03:45:59.085Z,6.63
2019-03-10T03:48:29.423Z,6.73
2019-03-10T03:50:59.912Z,8.10
2019-03-10T03:53:30.460Z,16.17
2019-03-10T03:56:00.919Z,8.03
2019-03-10T03:58:31.475Z,7.00
2019-03-10T04:01:23.902Z,5.97
2019-03-10T04:03:54.607Z,6.17
2019-03-10T04:06:25.071Z,5.13
2019-03-10T04:08:55.576Z,6.07
2019-03-10T04:11:26.175Z,5.60
2019-03-10T04:13:56.960Z,6.57
2019-03-10T04:16:27.619Z,5.00
2019-03-10T04:18:58.116Z,5.83
2019-03-10T04:21:28.864Z,5.57
2019-03-10T04:23:59.742Z,4.17
2019-03-10T04:26:30.414Z,5.93
2019-03-10T04:29:00.931Z,5.80
2019-03-10T04:31:31.696Z,5.87
2019-03-10T04:34:02.397Z,5.87
2019-03-10T04:36:32.823Z,5.37
2019-03-10T04:39:03.535Z,7.60
2019-03-10T04:41:33.811Z,5.33
2019-03-10T04:44:04.498Z,4.17
2019-03-10T04:46:35.120Z,6.83
2019-03-10T04:49:05.584Z,6.50
2019-03-10T04:51:35.913Z,5.70
2019-03-10T04:54:06.327Z,7.13
2019-03-10T04:56:47.055Z,7.43
2019-03-10T04:59:17.584Z,6.10
2019-03-10T05:01:47.983Z,8.70
2019-03-10T05:04:18.363Z,5.60
2019-03-10T05:06:49.057Z,6.27
2019-03-10T05:09:19.521Z,5.23
2019-03-10T05:11:50.154Z,8.50
2019-03-10T05:14:20.824Z,5.47
2019-03-10T05:16:51.549Z,4.77
2019-03-10T05:19:22.297Z,5.33
2019-03-10T05:21:54.011Z,5.77
2019-03-10T05:24:24.756Z,7.17
2019-03-10T05:26:55.288Z,6.70
2019-03-10T05:29:25.879Z,9.23
2019-03-10T05:31:56.447Z,7.27
2019-03-10T05:34:27.150Z,5.60
2019-03-10T05:36:57.569Z,6.10
2019-03-10T05:39:27.938Z,6.43
2019-03-10T05:41:58.435Z,9.03
2019-03-10T05:44:28.996Z,6.00
2019-03-10T05:46:59.392Z,5.87
2019-03-10T05:49:29.841Z,7.40
2019-03-10T05:52:00.355Z,9.93
2019-03-10T05:54:31.095Z,7.43
2019-03-10T05:57:01.676Z,6.97
2019-03-10T05:59:32.205Z,8.27
2019-03-10T06:02:02.486Z,7.43
2019-03-10T06:04:32.959Z,7.40
2019-03-10T06:07:03.526Z,6.13
2019-03-10T06:09:34.056Z,7.27
2019-03-10T06:12:04.712Z,5.50
2019-03-10T06:14:38.346Z,5.97
2019-03-10T06:17:08.814Z,7.80
2019-03-10T06:19:39.280Z,8.17
2019-03-10T06:22:09.781Z,6.50
2019-03-10T06:24:40.199Z,7.30
2019-03-10T06:27:10.969Z,8.47
2019-03-10T06:29:41.396Z,5.57
2019-03-10T06:32:11.838Z,7.20
2019-03-10T06:34:42.274Z,6.27
2019-03-10T06:37:12.756Z,5.70
2019-03-10T06:39:43.145Z,8.37
2019-03-10T06:42:13.649Z,6.90
2019-03-10T06:44:44.376Z,13.17
2019-03-10T06:47:14.804Z,6.20
2019-03-10T06:49:46.534Z,13.40
2019-03-10T06:52:16.961Z,7.17
2019-03-10T06:54:47.399Z,4.80
2019-03-10T06:57:17.931Z,5.80
2019-03-10T06:59:50.021Z,7.50
2019-03-10T07:02:20.530Z,4.73
2019-03-10T07:04:51.198Z,7.30
2019-03-10T07:07:21.623Z,6.93
2019-03-10T07:09:51.970Z,5.90
2019-03-10T07:12:22.438Z,4.93
2019-03-10T07:14:52.910Z,5.93
2019-03-10T07:17:23.297Z,4.90
2019-03-10T07:19:54.914Z,5.83
2019-03-10T07:22:25.339Z,7.27
2019-03-10T07:24:55.749Z,5.67
2019-03-10T07:27:29.253Z,5.13
2019-03-10T07:30:06.936Z,3.40
2019-03-10T07:32:56.106Z,3.50
2019-03-10T07:35:54.330Z,6.33
2019-03-10T07:38:33.168Z,7.60
2019-03-10T07:41:28.702Z,4.60
2019-03-10T07:44:19.360Z,4.20
2019-03-10T07:47:00.187Z,5.60
2019-03-10T07:49:38.568Z,4.20
2019-03-10T07:52:46.197Z,4.17
2019-03-10T07:55:53.420Z,4.20
2019-03-10T07:58:41.184Z,4.90
2019-03-10T08:01:18.357Z,4.50
2019-03-10T08:04:10.523Z,6.87
2019-03-10T08:06:51.268Z,5.03
2019-03-10T08:09:55.842Z,6.27
2019-03-10T08:12:39.290Z,4.40
2019-03-10T08:15:28.526Z,5.20
2019-03-10T08:18:16.508Z,6.07
2019-03-10T08:21:06.047Z,3.20
2019-03-10T08:24:07.130Z,5.60
2019-03-10T08:26:55.204Z,4.30
2019-03-10T08:29:44.481Z,4.73
2019-03-10T08:32:33.715Z,6.27
2019-03-10T08:35:13.639Z,4.47
2019-03-10T08:38:01.677Z,6.20
2019-03-10T08:40:47.359Z,3.63
2019-03-10T08:43:47.494Z,10.60
2019-03-10T08:46:42.630Z,7.67
2019-03-10T08:49:23.273Z,5.77
2019-03-10T08:52:02.187Z,5.17
2019-03-10T08:54:51.339Z,3.87
2019-03-10T08:57:55.955Z,3.63
2019-03-10T09:01:00.258Z,5.00
2019-03-10T09:03:46.120Z,2.57
2019-03-10T09:06:35.314Z,4.47
2019-03-10T09:09:23.168Z,4.33
2019-03-10T09:12:03.148Z,7.17
2019-03-10T09:15:07.341Z,4.30
2019-03-10T09:17:59.025Z,4.93
2019-03-10T09:20:43.276Z,3.57
2019-03-10T09:23:31.899Z,3.77
2019-03-10T09:26:27.070Z,2.87
2019-03-10T09:29:11.413Z,3.37
2019-03-10T09:32:18.662Z,3.10
2019-03-10T09:35:00.727Z,2.90
2019-03-10T09:37:49.749Z,2.23
2019-03-10T09:40:54.152Z,4.33
2019-03-10T09:43:41.922Z,3.60
2019-03-10T09:46:21.431Z,2.70
2019-03-10T09:49:09.212Z,2.67
2019-03-10T09:52:04.272Z,4.17
2019-03-10T09:55:01.055Z,3.03
2019-03-10T09:57:53.590Z,3.47
2019-03-10T10:00:40.170Z,2.70
2019-03-10T10:03:38.401Z,3.37
2019-03-10T10:06:26.296Z,4.40
2019-03-10T10:09:16.567Z,3.20
2019-03-10T10:11:59.159Z,4.37
2019-03-10T10:14:44.176Z,2.75
2019-03-10T10:17:20.771Z,3.87
2019-03-10T10:20:12.674Z,4.55
2019-03-10T10:23:00.468Z,4.58
2019-03-10T10:25:39.499Z,4.00
2019-03-10T10:28:16.799Z,2.55
2019-03-10T10:30:59.029Z,3.33
2019-03-10T10:33:44.772Z,3.35
2019-03-10T10:36:32.718Z,3.00
2019-03-10T10:39:20.427Z,4.17
2019-03-10T10:42:04.092Z,2.62
2019-03-10T10:45:11.438Z,2.55
2019-03-10T10:47:58.911Z,4.60
2019-03-10T10:50:50.933Z,3.25
2019-03-10T10:53:39.057Z,5.28
2019-03-10T10:56:32.361Z,4.57
2019-03-10T10:59:20.787Z,2.60
2019-03-10T11:01:59.727Z,2.60
2019-03-10T11:04:57.858Z,2.33
2019-03-10T11:07:38.712Z,3.22
2019-03-10T11:10:24.895Z,2.35
2019-03-10T11:13:08.342Z,2.12
2019-03-10T11:15:48.107Z,2.70
2019-03-10T11:18:43.123Z,3.77
2019-03-10T11:21:19.185Z,15.93
2019-03-10T11:24:14.208Z,6.72
2019-03-10T11:27:09.199Z,73.20
2019-03-10T11:29:53.536Z,7.83
2019-03-10T11:32:45.433Z,4.40
2019-03-10T11:35:33.379Z,19.60
2019-03-10T11:38:13.414Z,4.35
2019-03-10T11:41:00.975Z,3.12
2019-03-10T11:43:49.148Z,2.85
2019-03-10T11:46:28.970Z,25.27
2019-03-10T11:49:17.168Z,4.10
2019-03-10T11:52:12.469Z,3.10
2019-03-10T11:55:01.731Z,3.00
2019-03-10T11:57:50.235Z,3.77
2019-03-10T12:00:38.258Z,6.75
2019-03-10T12:03:15.104Z,7.40
2019-03-10T12:06:05.624Z,3.15
2019-03-10T12:08:50.538Z,3.62
2019-03-10T12:11:20.548Z,3.50
2019-03-10T12:13:50.730Z,4.30
2019-03-10T12:16:20.989Z,6.35
2019-03-10T12:18:51.385Z,3.47
2019-03-10T12:21:21.572Z,3.02
2019-03-10T12:23:52.185Z,3.33
2019-03-10T12:26:22.473Z,4.53
2019-03-10T12:28:52.116Z,2.77
2019-03-10T12:31:22.222Z,8.18
2019-03-10T12:33:51.905Z,10.70
2019-03-10T12:36:21.996Z,5.75
2019-03-10T12:38:52.598Z,3.12
2019-03-10T12:41:22.863Z,3.58
2019-03-10T12:43:53.131Z,2.65
2019-03-10T12:46:22.965Z,2.80
2019-03-10T12:48:53.140Z,3.40
2019-03-10T12:51:27.599Z,3.08
2019-03-10T12:53:57.270Z,3.47
2019-03-10T12:56:27.101Z,5.12
2019-03-10T12:58:57.099Z,5.22
2019-03-10T13:01:26.784Z,11.53
2019-03-10T13:03:59.218Z,5.75
2019-03-10T13:06:28.767Z,3.65
2019-03-10T13:08:58.518Z,3.40
2019-03-10T13:11:28.459Z,3.83
2019-03-10T13:14:01.673Z,4.55
2019-03-10T13:16:31.567Z,2.65
2019-03-10T13:19:01.949Z,2.85
2019-03-10T13:21:31.808Z,4.42
2019-03-10T13:24:01.766Z,3.47
2019-03-10T13:26:31.630Z,3.58
2019-03-10T13:29:01.828Z,2.80
2019-03-10T13:31:31.653Z,3.40
2019-03-10T13:34:03.282Z,3.52
2019-03-10T13:36:33.676Z,2.95
2019-03-10T13:39:04.270Z,2.67
2019-03-10T13:41:34.379Z,3.60
2019-03-10T13:44:04.666Z,3.20
2019-03-10T13:46:34.820Z,5.33
2019-03-10T13:49:04.564Z,2.97
2019-03-10T13:51:34.943Z,3.87
2019-03-10T13:54:04.652Z,10.70
2019-03-10T13:56:35.000Z,5.67
2019-03-10T13:59:05.459Z,4.37
2019-03-10T14:01:35.438Z,4.40
2019-03-10T14:04:05.804Z,9.53
2019-03-10T14:06:36.241Z,4.30
2019-03-10T14:09:09.011Z,4.83
2019-03-10T14:11:39.511Z,9.47
2019-03-10T14:14:09.768Z,25.10
2019-03-10T14:16:40.174Z,19.63
2019-03-10T14:19:10.172Z,10.63
2019-03-10T14:21:40.484Z,9.73
2019-03-10T14:24:10.529Z,4.70
2019-03-10T14:26:40.658Z,4.77
2019-03-10T14:29:10.932Z,5.80
2019-03-10T14:31:41.224Z,6.10
2019-03-10T14:34:11.079Z,4.73
2019-03-10T14:36:41.364Z,5.97
2019-03-10T14:39:11.578Z,5.77
2019-03-10T14:41:41.938Z,5.40
2019-03-10T14:44:15.489Z,7.07
2019-03-10T14:46:48.963Z,7.13
2019-03-10T14:49:24.061Z,9.70
2019-03-10T14:51:57.443Z,12.30
2019-03-10T14:54:27.711Z,6.97
2019-03-10T14:56:58.004Z,8.27
2019-03-10T14:59:28.446Z,9.93
2019-03-10T15:02:00.305Z,9.13
2019-03-10T15:04:30.525Z,27.57
2019-03-10T15:07:03.062Z,18.93
2019-03-10T15:09:33.077Z,10.77
2019-03-10T15:12:03.487Z,13.13
2019-03-10T15:14:33.944Z,10.10
2019-03-10T15:17:04.442Z,10.07
2019-03-10T15:19:34.916Z,11.27
2019-03-10T15:22:05.303Z,9.93
2019-03-10T15:24:35.849Z,8.63
2019-03-10T15:27:06.240Z,7.67
2019-03-10T15:29:36.599Z,7.90
2019-03-10T15:32:06.949Z,7.30
2019-03-10T15:34:37.414Z,33.43
2019-03-10T15:37:07.841Z,44.87
2019-03-10T15:39:38.249Z,44.23
2019-03-10T15:42:08.575Z,37.20
2019-03-10T15:44:39.035Z,33.43
2019-03-10T15:47:09.448Z,15.70
2019-03-10T15:49:39.852Z,13.90
2019-03-10T15:52:10.286Z,18.87
2019-03-10T15:54:40.635Z,23.87
2019-03-10T15:57:11.031Z,26.23
2019-03-10T15:59:41.626Z,28.13
2019-03-10T16:02:12.048Z,27.23
2019-03-10T16:04:42.449Z,21.67
2019-03-10T16:07:12.941Z,24.53
2019-03-10T16:09:43.280Z,37.30
2019-03-10T16:12:13.751Z,32.83
2019-03-10T16:14:44.109Z,23.37
2019-03-10T16:17:14.456Z,32.97
2019-03-10T16:19:44.998Z,34.50
2019-03-10T16:22:15.504Z,48.57
2019-03-10T16:24:45.873Z,38.93
2019-03-10T16:27:16.237Z,5.63
2019-03-10T16:29:46.742Z,7.23
2019-03-10T16:32:17.074Z,3.50
2019-03-10T16:34:47.566Z,5.20
2019-03-10T16:37:18.212Z,4.87
2019-03-10T16:39:48.488Z,5.43
2019-03-10T16:42:18.918Z,4.57
2019-03-10T16:44:49.392Z,3.40
2019-03-10T16:47:19.900Z,3.90
2019-03-10T16:49:50.209Z,3.67
2019-03-10T16:52:20.602Z,11.33
2019-03-10T16:54:51.117Z,6.53
2019-03-10T16:57:21.648Z,36.17
2019-03-10T16:59:55.183Z,27.83
2019-03-10T17:02:25.698Z,26.30
2019-03-10T17:04:56.175Z,43.37
2019-03-10T17:07:26.663Z,68.57
2019-03-10T17:09:57.062Z,316.40
2019-03-10T17:12:27.440Z,262.43
2019-03-10T17:14:57.915Z,74.37
2019-03-10T17:17:28.356Z,77.10
2019-03-10T17:20:01.283Z,49.60
2019-03-10T17:22:31.786Z,32.93
2019-03-10T17:25:02.379Z,26.13
2019-03-10T17:27:32.737Z,53.43
2019-03-10T17:30:04.570Z,72.57
2019-03-10T17:32:37.297Z,62.53
2019-03-10T17:35:07.823Z,76.33
2019-03-10T17:37:38.229Z,94.90
2019-03-10T17:40:10.846Z,74.87
2019-03-10T17:42:41.459Z,46.53
2019-03-10T17:45:12.957Z,90.10
2019-03-10T17:47:43.512Z,109.23
2019-03-10T17:50:14.308Z,90.73
2019-03-10T17:52:44.729Z,83.60
2019-03-10T17:55:15.689Z,54.43
2019-03-10T17:57:46.197Z,62.00
2019-03-10T18:00:18.841Z,100.93
2019-03-10T18:02:49.328Z,73.40
2019-03-10T18:05:20.102Z,52.63
2019-03-10T18:07:50.639Z,36.40
2019-03-10T18:10:21.050Z,26.73
2019-03-10T18:12:51.335Z,44.63
2019-03-10T18:15:22.277Z,56.70
2019-03-10T18:17:53.029Z,67.73
2019-03-10T18:20:24.107Z,59.63
2019-03-10T18:22:54.659Z,55.17
2019-03-10T18:25:25.363Z,68.20
2019-03-10T18:27:56.934Z,64.13
2019-03-10T18:30:27.829Z,51.63
2019-03-10T18:32:58.550Z,63.90
2019-03-10T18:35:29.161Z,60.67
2019-03-10T18:37:59.699Z,49.17
2019-03-10T18:40:30.570Z,40.93
2019-03-10T18:43:01.285Z,20.23
2019-03-10T18:45:32.009Z,22.93
2019-03-10T18:48:02.475Z,17.27
2019-03-10T18:50:32.965Z,23.00
2019-03-10T18:53:03.692Z,18.17
2019-03-10T18:55:34.034Z,15.33
2019-03-10T18:58:04.568Z,14.20
2019-03-10T19:00:35.381Z,11.40
2019-03-10T19:03:05.930Z,8.43
2019-03-10T19:05:36.530Z,13.57
2019-03-10T19:08:07.214Z,22.70
2019-03-10T19:10:37.862Z,18.83
2019-03-10T19:13:08.476Z,14.13
2019-03-10T19:15:39.344Z,12.33
2019-03-10T19:18:10.057Z,11.50
2019-03-10T19:20:40.529Z,23.50
2019-03-10T19:23:10.953Z,40.87
2019-03-10T19:25:41.744Z,46.67
2019-03-10T19:28:12.553Z,20.07
2019-03-10T19:30:43.034Z,11.33
2019-03-10T19:33:13.451Z,11.60
2019-03-10T19:35:43.998Z,24.53
2019-03-10T19:38:14.619Z,17.80
2019-03-10T19:40:45.048Z,8.53
2019-03-10T19:43:15.441Z,10.00
2019-03-10T19:45:45.888Z,13.60
2019-03-10T19:48:16.469Z,14.23
2019-03-10T19:50:47.083Z,14.13
2019-03-10T19:53:17.789Z,14.53
2019-03-10T19:55:48.203Z,10.70
2019-03-10T19:58:18.816Z,14.27
2019-03-10T20:00:49.425Z,15.40
2019-03-10T20:03:20.055Z,14.17
2019-03-10T20:05:50.619Z,20.10
2019-03-10T20:08:21.033Z,13.17
2019-03-10T20:10:51.602Z,16.33
2019-03-10T20:13:22.133Z,21.60
2019-03-10T20:15:52.883Z,25.27
2019-03-10T20:18:23.235Z,20.83
2019-03-10T20:20:53.774Z,20.10
2019-03-10T20:23:24.339Z,15.97
2019-03-10T20:25:54.740Z,12.03
2019-03-10T20:28:25.391Z,15.67
2019-03-10T20:30:55.911Z,10.13
2019-03-10T20:33:26.581Z,11.87
2019-03-10T20:35:56.871Z,8.57
2019-03-10T20:38:28.846Z,9.47
2019-03-10T20:40:59.523Z,10.87
2019-03-10T20:43:30.245Z,22.30
2019-03-10T20:46:00.801Z,16.40
2019-03-10T20:48:32.803Z,11.77
2019-03-10T20:51:05.246Z,10.73
2019-03-10T20:53:35.540Z,10.80
2019-03-10T20:56:07.711Z,11.47
2019-03-10T20:58:38.169Z,11.97
2019-03-10T21:01:08.750Z,9.60
2019-03-10T21:03:39.572Z,12.00
2019-03-10T21:06:12.171Z,11.67
2019-03-10T21:08:42.630Z,10.80
2019-03-10T21:11:13.205Z,9.77
2019-03-10T21:13:43.762Z,6.43
2019-03-10T21:16:14.494Z,15.90
2019-03-10T21:18:44.920Z,6.97
2019-03-10T21:21:15.611Z,6.50
2019-03-10T21:23:46.199Z,8.50
2019-03-10T21:26:16.639Z,10.60
2019-03-10T21:28:47.392Z,10.77
2019-03-10T21:31:17.748Z,12.73
2019-03-10T21:33:48.274Z,8.87
2019-03-10T21:36:19.074Z,8.90
2019-03-10T21:38:49.601Z,10.00
2019-03-10T21:41:20.141Z,6.47
2019-03-10T21:43:50.546Z,7.53
2019-03-10T21:46:21.411Z,9.50
2019-03-10T21:48:52.027Z,7.07
2019-03-10T21:51:22.960Z,8.70
2019-03-10T21:53:53.818Z,7.83
2019-03-10T21:56:24.360Z,9.47
2019-03-10T21:58:54.810Z,23.97
2019-03-10T22:01:25.482Z,20.17
2019-03-10T22:03:56.144Z,28.63
2019-03-10T22:06:26.652Z,25.57
2019-03-10T22:08:58.501Z,22.27
2019-03-10T22:11:28.973Z,20.40
2019-03-10T22:13:59.867Z,19.17
2019-03-10T22:16:31.448Z,16.77
2019-03-10T22:19:04.630Z,17.53
2019-03-10T22:21:35.223Z,16.00
2019-03-10T22:24:05.784Z,14.90
2019-03-10T22:26:36.139Z,14.10
2019-03-10T22:29:06.569Z,17.70
2019-03-10T22:31:37.054Z,13.00
2019-03-10T22:34:07.679Z,11.97
2019-03-10T22:36:38.316Z,11.47
2019-03-10T22:39:09.638Z,16.97
2019-03-10T22:41:40.225Z,14.27
2019-03-10T22:44:10.613Z,11.53
2019-03-10T22:46:41.357Z,13.23
2019-03-10T22:49:12.145Z,11.20
2019-03-10T22:51:42.515Z,14.03
2019-03-10T22:54:13.185Z,11.50
2019-03-10T22:56:44.055Z,12.33
2019-03-10T22:59:14.541Z,14.23
2019-03-10T23:01:45.156Z,10.33
2019-03-10T23:04:15.962Z,11.47
2019-03-10T23:06:46.615Z,9.77
2019-03-10T23:09:17.374Z,11.90
2019-03-10T23:11:48.007Z,12.53
2019-03-10T23:14:18.262Z,11.80
2019-03-10T23:16:48.680Z,13.90
2019-03-10T23:19:19.336Z,10.60
2019-03-10T23:21:50.073Z,13.67
2019-03-10T23:24:20.587Z,15.83
2019-03-10T23:26:51.308Z,12.27
2019-03-10T23:29:21.947Z,11.83
2019-03-10T23:31:52.393Z,12.10
2019-03-10T23:34:22.963Z,15.07
2019-03-10T23:36:53.718Z,13.87
2019-03-10T23:39:24.362Z,10.27
2019-03-10T23:41:54.744Z,9.53
2019-03-10T23:44:25.339Z,10.40
2019-03-10T23:46:56.125Z,13.37
2019-03-10T23:49:26.765Z,16.67
2019-03-10T23:51:57.519Z,9.80
2019-03-10T23:54:28.089Z,11.83
2019-03-10T23:56:58.699Z,11.63
2019-03-10T23:59:29.217Z,11.60
